Time;durP1;ratioP1;P1;durP2;ratioP2;P2;SDS_P1;SDS_P2;PMS_P1;PMS_P2;Temp;Humidity;BMP_temperature;BMP_pressure;BME280_temperature;BME280_humidity;BME280_pressure;Samples;Min_cycle;Max_cycle;Signal;HPM_P1;HPM_P2
2021/09/28 00:00:15;;;;;;;;;;;;;;;14.94;73.80;97516.19;30001;983;1876;-65
2021/09/28 00:00:47;;;;;;;;;;;;;;;14.99;73.35;97505.97;30001;983;1880;-59
2021/09/28 00:01:19;;;;;;;;;;;;;;;14.93;73.54;97504.47;30001;983;1854;-58
2021/09/28 00:01:50;;;;;;;;;;;;;;;14.90;73.58;97504.28;30001;983;1876;-59
2021/09/28 00:02:22;;;;;;;;;;;;;;;14.88;74.04;97512.78;30001;982;1876;-58
2021/09/28 00:02:54;;;;;;;;;;;;;;;14.89;73.90;97519.06;30001;982;1880;-60
2021/09/28 00:03:25;;;;;;;;;;;;;;;14.87;73.82;97511.16;30001;982;1876;-59
2021/09/28 00:03:56;;;;;;;;;;;;;;;14.86;74.13;97508.75;30001;982;1880;-57
2021/09/28 00:04:26;;;;;;;;;;;;;;;14.86;73.69;97515.00;30001;982;1782;-63
2021/09/28 00:04:57;;;;;;;;;;;;;;;14.89;73.28;97505.41;30001;983;1880;-59
2021/09/28 00:05:28;;;;;;;;;;;;;;;14.87;73.37;97515.81;30001;983;1875;-61
2021/09/28 00:05:59;;;;;;;;;;;;;;;14.87;73.50;97513.09;30001;983;1880;-59
2021/09/28 00:06:31;;;;;;;;;;;;;;;14.82;73.98;97513.19;30001;983;1854;-60
2021/09/28 00:07:02;;;;;;;;;;;;;;;14.80;73.94;97526.34;30001;983;1875;-59
2021/09/28 00:07:34;;;;;;;;;;;;;;;14.73;73.90;97527.56;30001;983;1792;-59
2021/09/28 00:08:05;;;;;;;;;;;;;;;14.72;74.03;97520.47;30001;983;1880;-58
2021/09/28 00:08:37;;;;;;;;;;;;;;;14.71;73.96;97529.78;30001;983;1876;-59
2021/09/28 00:09:08;;;;;;;;;;;;;;;14.71;74.02;97529.78;30001;983;1880;-59
2021/09/28 00:09:39;;;;;;;;;;;;;;;14.70;74.13;97521.88;30001;983;1876;-63
2021/09/28 00:10:11;;;;;;;;;;;;;;;14.74;73.61;97529.19;30001;982;1880;-59
2021/09/28 00:10:43;;;;;;;;;;;;;;;14.75;73.99;97525.34;30001;982;1876;-58
2021/09/28 00:11:14;;;;;;;;;;;;;;;14.77;73.99;97524.22;30001;982;1880;-59
2021/09/28 00:11:50;;;;;;;;;;;;;;;14.72;74.18;97525.94;30001;982;1854;-58
2021/09/28 00:12:22;;;;;;;;;;;;;;;14.69;74.41;97532.00;30001;982;1876;-59
2021/09/28 00:12:53;;;;;;;;;;;;;;;14.69;74.10;97529.28;30001;983;1875;-76
2021/09/28 00:13:24;;;;;;;;;;;;;;;14.67;74.18;97528.78;30001;983;1880;-65
2021/09/28 00:13:56;;;;;;;;;;;;;;;14.66;73.93;97529.88;30001;983;1875;-63
2021/09/28 00:14:27;;;;;;;;;;;;;;;14.64;73.72;97534.84;30001;983;1880;-59
2021/09/28 00:14:58;;;;;;;;;;;;;;;14.62;74.09;97542.53;30001;983;1876;-59
2021/09/28 00:15:29;;;;;;;;;;;;;;;14.64;73.96;97534.84;30001;983;1880;-62
2021/09/28 00:16:00;;;;;;;;;;;;;;;14.64;73.33;97531.28;30001;983;1876;-59
2021/09/28 00:16:32;;;;;;;;;;;;;;;14.63;73.45;97533.22;30001;983;1880;-59
2021/09/28 00:17:03;;;;;;;;;;;;;;;14.60;73.61;97531.09;30001;983;1854;-67
2021/09/28 00:17:34;;;;;;;;;;;;;;;14.58;73.62;97535.22;30001;982;1876;-59
2021/09/28 00:18:06;;;;;;;;;;;;;;;14.58;73.64;97530.59;30001;982;1876;-58
2021/09/28 00:18:37;;;;;;;;;;;;;;;14.59;73.68;97537.66;30001;982;1880;-58
2021/09/28 00:19:08;;;;;;;;;;;;;;;14.60;73.46;97528.34;30001;982;1876;-60
2021/09/28 00:19:40;;;;;;;;;;;;;;;14.61;72.99;97532.72;30001;982;1880;-62
2021/09/28 00:20:12;;;;;;;;;;;;;;;14.58;73.39;97536.03;30001;983;1875;-59
2021/09/28 00:20:43;;;;;;;;;;;;;;;14.52;73.46;97526.34;30001;983;1879;-58
2021/09/28 00:21:14;;;;;;;;;;;;;;;14.45;73.94;97531.41;30001;983;1875;-61
2021/09/28 00:21:45;;;;;;;;;;;;;;;14.44;73.59;97524.31;30001;983;1880;-59
2021/09/28 00:22:16;;;;;;;;;;;;;;;14.48;73.72;97535.44;30001;983;1854;-60
2021/09/28 00:22:48;;;;;;;;;;;;;;;14.46;73.70;97527.56;30001;983;1876;-57
2021/09/28 00:23:19;;;;;;;;;;;;;;;14.40;74.00;97526.81;30001;983;1876;-59
2021/09/28 00:23:51;;;;;;;;;;;;;;;14.39;74.24;97527.91;30001;983;1880;-62
2021/09/28 00:24:22;;;;;;;;;;;;;;;14.40;73.71;97526.00;30001;983;1876;-58
2021/09/28 00:24:53;;;;;;;;;;;;;;;14.37;74.25;97523.87;30001;983;1880;-58
2021/09/28 00:25:24;;;;;;;;;;;;;;;14.35;74.01;97524.16;30001;982;1854;-58
2021/09/28 00:25:57;;;;;;;;;;;;;;;14.36;74.00;97533.97;30001;982;1876;-58
2021/09/28 00:26:28;;;;;;;;;;;;;;;14.31;73.75;97522.34;30001;982;1876;-61
2021/09/28 00:26:59;;;;;;;;;;;;;;;14.31;74.01;97533.25;30001;982;1880;-59
2021/09/28 00:27:30;;;;;;;;;;;;;;;14.29;73.85;97530.03;30001;983;1875;-57
2021/09/28 00:28:01;;;;;;;;;;;;;;;14.24;74.27;97530.91;30001;983;1880;-58
2021/09/28 00:28:32;;;;;;;;;;;;;;;14.27;74.16;97524.84;30001;983;1875;-60
2021/09/28 00:29:03;;;;;;;;;;;;;;;14.27;74.20;97527.59;30001;983;1880;-58
2021/09/28 00:29:34;;;;;;;;;;;;;;;14.26;73.96;97531.44;30001;983;1875;-70
2021/09/28 00:30:06;;;;;;;;;;;;;;;14.26;73.77;97527.88;30001;983;1880;-67
2021/09/28 00:30:39;;;;;;;;;;;;;;;14.29;73.57;97524.56;30001;983;1854;-59
2021/09/28 00:31:11;;;;;;;;;;;;;;;14.30;73.67;97532.44;30001;983;1876;-67
2021/09/28 00:31:42;;;;;;;;;;;;;;;14.35;73.13;97531.56;30001;983;1876;-63
2021/09/28 00:32:13;;;;;;;;;;;;;;;14.38;73.26;97536.41;30001;983;1880;-65
2021/09/28 00:32:44;;;;;;;;;;;;;;;14.37;73.09;97529.34;30001;982;1876;-61
2021/09/28 00:33:15;;;;;;;;;;;;;;;14.37;73.19;97534.78;30001;982;1880;-63
2021/09/28 00:33:46;;;;;;;;;;;;;;;14.36;73.02;97533.97;30001;982;1876;-57
2021/09/28 00:34:17;;;;;;;;;;;;;;;14.36;73.21;97535.91;30001;982;1880;-58
2021/09/28 00:34:49;;;;;;;;;;;;;;;14.30;73.26;97534.38;30001;982;1876;-57
2021/09/28 00:35:20;;;;;;;;;;;;;;;14.26;73.72;97533.34;30001;983;1879;-60
2021/09/28 00:35:52;;;;;;;;;;;;;;;14.28;73.27;97529.22;30001;983;1853;-59
2021/09/28 00:36:26;;;;;;;;;;;;;;;14.29;73.31;97525.38;30001;983;1876;-67
2021/09/28 00:36:57;;;;;;;;;;;;;;;14.34;72.88;97536.19;30001;983;1875;-61
2021/09/28 00:37:28;;;;;;;;;;;;;;;14.31;73.20;97530.53;30001;983;1880;-56
2021/09/28 00:38:00;;;;;;;;;;;;;;;14.22;73.45;97535.06;30001;983;1876;-56
2021/09/28 00:38:31;;;;;;;;;;;;;;;14.18;74.18;97534.88;30001;983;1880;-63
2021/09/28 00:39:02;;;;;;;;;;;;;;;14.16;74.00;97541.75;30001;983;1876;-59
2021/09/28 00:39:33;;;;;;;;;;;;;;;14.09;74.66;97533.94;30001;982;1880;-58
2021/09/28 00:40:06;;;;;;;;;;;;;;;14.04;74.32;97534.03;30001;982;1876;-58
2021/09/28 00:40:37;;;;;;;;;;;;;;;13.99;75.25;97539.56;30001;982;1880;-58
2021/09/28 00:41:09;;;;;;;;;;;;;;;13.96;75.22;97540.97;30001;982;1854;-58
2021/09/28 00:41:40;;;;;;;;;;;;;;;13.95;75.15;97544.81;30001;982;1876;-59
2021/09/28 00:42:11;;;;;;;;;;;;;;;13.94;75.50;97548.63;30001;982;1876;-58
2021/09/28 00:42:42;;;;;;;;;;;;;;;13.97;75.64;97548.03;30001;983;1880;-57
2021/09/28 00:43:13;;;;;;;;;;;;;;;13.97;75.84;97547.22;30001;983;1875;-61
2021/09/28 00:43:54;;;;;;;;;;;;;;;13.98;76.08;97544.22;30001;983;1880;-59
2021/09/28 00:44:43;;;;;;;;;;;;;;;13.97;76.47;97553.50;30001;983;1876;-59
2021/09/28 00:45:14;;;;;;;;;;;;;;;14.05;76.89;97552.81;30001;983;1880;-58
2021/09/28 00:45:48;;;;;;;;;;;;;;;14.07;76.73;97557.97;30001;983;1876;-60
2021/09/28 00:46:20;;;;;;;;;;;;;;;14.04;77.03;97564.03;30001;983;1858;-60
2021/09/28 00:46:52;;;;;;;;;;;;;;;13.98;77.09;97559.78;30001;982;1871;-58
2021/09/28 00:47:22;;;;;;;;;;;;;;;13.94;77.48;97559.56;30001;982;1880;-58
2021/09/28 00:47:53;;;;;;;;;;;;;;;13.90;77.37;97569.44;30001;982;1876;-58
2021/09/28 00:48:24;;;;;;;;;;;;;;;13.91;77.51;97568.31;30001;982;1881;-59
2021/09/28 00:48:59;;;;;;;;;;;;;;;13.87;77.26;97564.56;30001;982;1876;-58
2021/09/28 00:49:30;;;;;;;;;;;;;;;13.95;77.20;97577.53;30001;982;1880;-58
2021/09/28 00:50:01;;;;;;;;;;;;;;;13.96;76.72;97576.44;30001;982;1876;-59
2021/09/28 00:50:35;;;;;;;;;;;;;;;13.92;76.79;97572.69;30001;983;1858;-58
2021/09/28 00:51:06;;;;;;;;;;;;;;;13.85;77.37;97566.81;30001;983;1871;-59
2021/09/28 00:51:37;;;;;;;;;;;;;;;13.85;77.42;97571.47;30001;983;1880;-59
2021/09/28 00:52:10;;;;;;;;;;;;;;;13.81;77.00;97581.34;30001;983;1875;-65
2021/09/28 00:52:41;;;;;;;;;;;;;;;13.82;76.95;97570.13;30001;983;1880;-59
2021/09/28 00:53:12;;;;;;;;;;;;;;;13.74;77.29;97577.06;30001;983;1854;-58
2021/09/28 00:53:44;;;;;;;;;;;;;;;13.70;77.51;97580.69;30001;983;1876;-58
2021/09/28 00:54:14;;;;;;;;;;;;;;;13.65;77.20;97578.03;30001;983;1876;-58
2021/09/28 00:54:46;;;;;;;;;;;;;;;13.62;77.53;97582.16;30001;982;1880;-59
2021/09/28 00:55:18;;;;;;;;;;;;;;;13.57;77.67;97576.75;30001;982;1876;-55
2021/09/28 00:55:49;;;;;;;;;;;;;;;13.57;77.78;97570.50;30001;982;1880;-61
2021/09/28 00:56:22;;;;;;;;;;;;;;;13.55;77.49;97575.44;30001;982;1876;-58
2021/09/28 00:56:55;;;;;;;;;;;;;;;13.55;77.38;97583.63;30001;982;1880;-57
2021/09/28 00:57:30;;;;;;;;;;;;;;;13.55;77.10;97586.34;30001;982;1876;-59
2021/09/28 00:58:08;;;;;;;;;;;;;;;13.48;77.93;97583.19;30001;983;1858;-59
2021/09/28 00:58:40;;;;;;;;;;;;;;;13.35;77.76;97580.09;30001;983;1871;-58
2021/09/28 00:59:12;;;;;;;;;;;;;;;13.26;78.33;97581.03;30001;983;1858;-58
2021/09/28 00:59:44;;;;;;;;;;;;;;;13.19;78.79;97575.94;30001;983;1880;-57
2021/09/28 01:00:15;;;;;;;;;;;;;;;13.26;77.85;97572.84;30001;983;1884;-63
2021/09/28 01:00:46;;;;;;;;;;;;;;;13.37;77.49;97585.25;30001;983;1880;-57
2021/09/28 01:01:18;;;;;;;;;;;;;;;13.40;76.97;97585.47;30001;983;1884;-58
2021/09/28 01:01:49;;;;;;;;;;;;;;;13.35;77.18;97590.19;30001;983;1880;-58
2021/09/28 01:02:20;;;;;;;;;;;;;;;13.27;77.93;97594.38;30001;982;1863;-57
2021/09/28 01:02:52;;;;;;;;;;;;;;;13.20;78.11;97582.19;30001;963;1798;-59
2021/09/28 01:03:25;;;;;;;;;;;;;;;13.14;78.18;97586.09;30001;982;1885;-59
2021/09/28 01:03:59;;;;;;;;;;;;;;;13.08;78.93;97586.16;30001;982;1880;-58
2021/09/28 01:04:30;;;;;;;;;;;;;;;13.08;79.14;97585.34;30001;982;1885;-59
2021/09/28 01:05:03;;;;;;;;;;;;;;;13.04;79.04;97581.56;30001;982;1881;-58
2021/09/28 01:05:34;;;;;;;;;;;;;;;13.01;79.05;97595.78;30001;983;1884;-62
2021/09/28 01:06:05;;;;;;;;;;;;;;;13.03;79.24;97583.47;30001;983;1880;-61
2021/09/28 01:06:37;;;;;;;;;;;;;;;13.00;79.60;97588.69;30001;983;1884;-61
2021/09/28 01:07:09;;;;;;;;;;;;;;;12.98;79.43;97590.91;30001;983;1880;-58
2021/09/28 01:07:40;;;;;;;;;;;;;;;12.99;79.37;97587.06;30001;983;1884;-58
2021/09/28 01:08:11;;;;;;;;;;;;;;;12.97;79.42;97592.81;30001;983;1858;-58
2021/09/28 01:08:42;;;;;;;;;;;;;;;12.94;79.84;97590.66;30001;983;1858;-59
2021/09/28 01:09:13;;;;;;;;;;;;;;;12.90;79.53;97591.53;30001;983;1880;-58
2021/09/28 01:09:44;;;;;;;;;;;;;;;12.86;80.00;97591.31;30001;982;1884;-58
2021/09/28 01:10:15;;;;;;;;;;;;;;;12.86;80.09;97604.94;30001;982;1858;-59
2021/09/28 01:10:47;;;;;;;;;;;;;;;12.91;80.17;97590.44;30001;982;1880;-58
2021/09/28 01:11:18;;;;;;;;;;;;;;;12.90;80.06;97594.25;30001;982;1881;-57
2021/09/28 01:11:49;;;;;;;;;;;;;;;12.88;80.16;97591.00;30001;982;1885;-59
2021/09/28 01:12:20;;;;;;;;;;;;;;;12.86;79.85;97590.50;30001;983;1880;-58
2021/09/28 01:12:52;;;;;;;;;;;;;;;12.86;80.23;97596.75;30001;983;1862;-56
2021/09/28 01:13:24;;;;;;;;;;;;;;;12.85;80.08;97592.41;30001;983;1853;-59
2021/09/28 01:13:55;;;;;;;;;;;;;;;12.83;80.08;97588.34;30001;983;1884;-58
2021/09/28 01:14:26;;;;;;;;;;;;;;;12.81;81.02;97601.47;30001;983;1858;-56
2021/09/28 01:14:57;;;;;;;;;;;;;;;12.78;80.73;97597.41;30001;983;1880;-58
2021/09/28 01:15:28;;;;;;;;;;;;;;;12.79;80.90;97599.03;30001;975;1899;-58
2021/09/28 01:16:09;;;;;;;;;;;;;;;12.79;80.70;97603.66;30001;983;1884;-57
2021/09/28 01:16:41;;;;;;;;;;;;;;;12.78;81.00;97596.59;30001;983;1880;-57
2021/09/28 01:17:15;;;;;;;;;;;;;;;12.75;80.91;97604.25;30001;982;1885;-58
2021/09/28 01:17:46;;;;;;;;;;;;;;;12.76;80.84;97607.78;30001;982;1880;-60
2021/09/28 01:18:18;;;;;;;;;;;;;;;12.77;80.70;97605.88;30001;982;1863;-59
2021/09/28 01:18:49;;;;;;;;;;;;;;;12.70;80.17;97598.03;30001;982;1876;-60
2021/09/28 01:19:21;;;;;;;;;;;;;;;12.66;80.81;97605.97;30001;982;1885;-58
2021/09/28 01:19:53;;;;;;;;;;;;;;;12.71;80.56;97607.84;30001;983;1858;-56
2021/09/28 01:20:24;;;;;;;;;;;;;;;12.74;80.78;97608.06;30001;983;1880;-60
2021/09/28 01:20:55;;;;;;;;;;;;;;;12.75;80.31;97604.25;30001;983;1880;-60
2021/09/28 01:21:26;;;;;;;;;;;;;;;12.75;80.32;97606.97;30001;983;1862;-59
2021/09/28 01:21:58;;;;;;;;;;;;;;;12.72;80.05;97610.28;30001;983;1875;-62
2021/09/28 01:22:29;;;;;;;;;;;;;;;12.74;79.98;97609.97;30001;983;1884;-58
2021/09/28 01:23:00;;;;;;;;;;;;;;;12.70;80.04;97617.91;30001;983;1880;-60
2021/09/28 01:23:31;;;;;;;;;;;;;;;12.68;79.30;97613.84;30001;983;1884;-57
2021/09/28 01:24:02;;;;;;;;;;;;;;;12.63;79.59;97612.00;30001;983;1880;-59
2021/09/28 01:24:36;;;;;;;;;;;;;;;12.64;79.84;97613.63;30001;982;1884;-59
2021/09/28 01:25:10;;;;;;;;;;;;;;;12.69;79.12;97621.72;30001;982;1858;-57
2021/09/28 01:25:42;;;;;;;;;;;;;;;12.69;79.57;97616.28;30001;982;1880;-60
2021/09/28 01:26:18;;;;;;;;;;;;;;;12.66;79.59;97618.78;30001;982;1880;-58
2021/09/28 01:26:48;;;;;;;;;;;;;;;12.60;79.32;97618.00;30001;982;1885;-59
2021/09/28 01:27:19;;;;;;;;;;;;;;;12.56;79.14;97611.50;30001;983;1880;-57
2021/09/28 01:27:51;;;;;;;;;;;;;;;12.52;79.85;97615.91;30001;983;1884;-59
2021/09/28 01:28:22;;;;;;;;;;;;;;;12.49;79.89;97616.47;30001;983;1880;-60
2021/09/28 01:28:54;;;;;;;;;;;;;;;12.46;80.32;97627.97;30001;983;1884;-59
2021/09/28 01:29:26;;;;;;;;;;;;;;;12.45;80.05;97620.91;30001;983;1880;-57
2021/09/28 01:29:57;;;;;;;;;;;;;;;12.44;80.36;97629.34;30001;972;1877;-59
2021/09/28 01:30:28;;;;;;;;;;;;;;;12.42;80.44;97632.34;30001;983;1876;-56
2021/09/28 01:30:59;;;;;;;;;;;;;;;12.38;79.83;97631.31;30001;983;1884;-59
2021/09/28 01:31:30;;;;;;;;;;;;;;;12.37;80.22;97630.50;30001;983;1880;-58
2021/09/28 01:32:02;;;;;;;;;;;;;;;12.37;80.22;97629.69;30001;983;1884;-58
2021/09/28 01:32:35;;;;;;;;;;;;;;;12.35;80.17;97627.25;30001;982;1880;-58
2021/09/28 01:33:07;;;;;;;;;;;;;;;12.35;80.50;97629.16;30001;982;1863;-57
2021/09/28 01:33:38;;;;;;;;;;;;;;;12.33;80.46;97623.19;30001;982;1854;-58
2021/09/28 01:34:10;;;;;;;;;;;;;;;12.32;80.92;97632.44;30001;982;1885;-58
2021/09/28 01:34:41;;;;;;;;;;;;;;;12.31;81.10;97630.81;30001;983;1880;-59
2021/09/28 01:35:12;;;;;;;;;;;;;;;12.32;80.94;97633.25;30001;983;1862;-58
2021/09/28 01:35:43;;;;;;;;;;;;;;;12.36;80.80;97634.31;30001;983;1762;-59
2021/09/28 01:36:14;;;;;;;;;;;;;;;12.39;80.65;97632.94;30001;983;1884;-58
2021/09/28 01:36:45;;;;;;;;;;;;;;;12.40;80.07;97631.84;30001;983;1880;-56
2021/09/28 01:37:16;;;;;;;;;;;;;;;12.40;80.27;97634.56;30001;983;1884;-57
2021/09/28 01:37:47;;;;;;;;;;;;;;;12.39;80.33;97632.94;30001;983;1880;-58
2021/09/28 01:38:18;;;;;;;;;;;;;;;12.38;80.32;97632.13;30001;983;1884;-58
2021/09/28 01:38:51;;;;;;;;;;;;;;;12.37;79.92;97637.84;30001;983;1880;-58
2021/09/28 01:39:22;;;;;;;;;;;;;;;12.36;80.12;97639.75;30001;983;1884;-58
2021/09/28 01:39:54;;;;;;;;;;;;;;;12.36;80.19;97639.75;30001;982;1880;-58
2021/09/28 01:40:26;;;;;;;;;;;;;;;12.39;80.08;97641.09;30001;982;1885;-57
2021/09/28 01:40:57;;;;;;;;;;;;;;;12.42;80.11;97637.81;30001;982;1747;-58
2021/09/28 01:41:28;;;;;;;;;;;;;;;12.42;79.31;97637.81;30001;982;1880;-59
2021/09/28 01:41:59;;;;;;;;;;;;;;;12.39;79.13;97638.37;30001;982;1880;-57
2021/09/28 01:42:32;;;;;;;;;;;;;;;12.38;79.50;97636.75;30001;983;1884;-58
2021/09/28 01:43:10;;;;;;;;;;;;;;;12.36;79.27;97638.94;30001;983;1880;-58
2021/09/28 01:43:41;;;;;;;;;;;;;;;12.36;79.57;97641.66;30001;983;1884;-58
2021/09/28 01:44:13;;;;;;;;;;;;;;;12.37;79.64;97640.56;30001;983;1880;-60
2021/09/28 01:44:44;;;;;;;;;;;;;;;12.43;78.47;97639.44;30001;983;1862;-58
2021/09/28 01:45:16;;;;;;;;;;;;;;;12.46;77.84;97643.50;30001;983;1875;-57
2021/09/28 01:45:48;;;;;;;;;;;;;;;12.48;78.22;97641.25;30001;983;1884;-57
2021/09/28 01:46:20;;;;;;;;;;;;;;;12.47;78.43;97639.66;30001;984;1867;-59
2021/09/28 01:46:51;;;;;;;;;;;;;;;12.46;78.56;97647.03;30001;982;1880;-59
2021/09/28 01:47:22;;;;;;;;;;;;;;;12.43;78.70;97639.44;30001;982;1880;-60
2021/09/28 01:47:54;;;;;;;;;;;;;;;12.41;78.81;97641.62;30001;982;1884;-59
2021/09/28 01:48:29;;;;;;;;;;;;;;;12.38;78.90;97644.91;30001;982;1880;-57
2021/09/28 01:49:02;;;;;;;;;;;;;;;12.37;79.34;97646.00;30001;982;1885;-58
2021/09/28 01:49:34;;;;;;;;;;;;;;;12.35;79.42;97642.75;30001;982;1880;-56
2021/09/28 01:50:06;;;;;;;;;;;;;;;12.33;79.51;97645.78;30001;983;1862;-58
2021/09/28 01:50:37;;;;;;;;;;;;;;;12.32;79.61;97646.06;30001;983;1875;-59
2021/09/28 01:51:08;;;;;;;;;;;;;;;12.30;79.68;97646.34;30001;983;1884;-58
2021/09/28 01:51:40;;;;;;;;;;;;;;;12.31;79.92;97641.69;30001;983;1880;-59
2021/09/28 01:52:11;;;;;;;;;;;;;;;12.30;79.78;97645.53;30001;983;1884;-59
2021/09/28 01:52:43;;;;;;;;;;;;;;;12.30;80.26;97645.53;30001;983;1880;-59
2021/09/28 01:53:15;;;;;;;;;;;;;;;12.30;80.22;97645.53;30001;983;1863;-57
2021/09/28 01:53:47;;;;;;;;;;;;;;;12.27;80.34;97646.91;30001;983;1875;-59
2021/09/28 01:54:20;;;;;;;;;;;;;;;12.25;80.52;97649.09;30001;982;1884;-58
2021/09/28 01:54:50;;;;;;;;;;;;;;;12.24;80.46;97652.09;30001;982;1880;-58
2021/09/28 01:55:22;;;;;;;;;;;;;;;12.22;80.80;97643.41;30001;982;1884;-57
2021/09/28 01:55:53;;;;;;;;;;;;;;;12.19;81.27;97649.41;30001;982;1880;-59
2021/09/28 01:56:26;;;;;;;;;;;;;;;12.18;81.45;97647.78;30001;974;1883;-59
2021/09/28 01:56:57;;;;;;;;;;;;;;;12.16;81.10;97641.81;30001;982;1876;-58
2021/09/28 01:57:28;;;;;;;;;;;;;;;12.16;81.31;97639.09;30001;983;1862;-59
2021/09/28 01:58:00;;;;;;;;;;;;;;;12.17;81.06;97635.28;30001;983;1875;-58
2021/09/28 01:58:35;;;;;;;;;;;;;;;12.19;81.22;97639.34;30001;983;1884;-59
2021/09/28 01:59:06;;;;;;;;;;;;;;;12.17;81.15;97641.53;30001;983;1880;-59
2021/09/28 01:59:37;;;;;;;;;;;;;;;12.15;81.43;97643.72;30001;983;1884;-57
2021/09/28 02:00:09;;;;;;;;;;;;;;;12.15;81.41;97642.91;30001;983;1880;-58
2021/09/28 02:00:41;;;;;;;;;;;;;;;12.15;81.61;97637.47;30001;983;1884;-58
2021/09/28 02:01:12;;;;;;;;;;;;;;;12.13;81.52;97636.97;30001;983;1880;-59
2021/09/28 02:01:44;;;;;;;;;;;;;;;12.11;81.69;97637.25;30001;982;1884;-59
2021/09/28 02:02:15;;;;;;;;;;;;;;;12.12;81.26;97633.44;30001;982;1858;-58
2021/09/28 02:02:46;;;;;;;;;;;;;;;12.13;81.30;97639.69;30001;982;1880;-58
2021/09/28 02:03:17;;;;;;;;;;;;;;;12.12;81.27;97641.59;30001;982;1880;-58
2021/09/28 02:03:49;;;;;;;;;;;;;;;12.14;81.37;97635.84;30001;982;1884;-56
2021/09/28 02:04:20;;;;;;;;;;;;;;;12.14;81.11;97639.38;30001;982;1880;-58
2021/09/28 02:04:51;;;;;;;;;;;;;;;12.17;80.94;97629.84;30001;983;1884;-59
2021/09/28 02:05:22;;;;;;;;;;;;;;;12.14;80.66;97627.69;30001;983;1879;-57
2021/09/28 02:05:54;;;;;;;;;;;;;;;12.14;80.81;97630.41;30001;983;1884;-58
2021/09/28 02:06:27;;;;;;;;;;;;;;;12.13;80.88;97636.97;30001;983;1858;-58
2021/09/28 02:06:58;;;;;;;;;;;;;;;12.12;80.88;97640.78;30001;983;1879;-59
2021/09/28 02:07:29;;;;;;;;;;;;;;;12.12;81.23;97635.34;30001;983;1880;-59
2021/09/28 02:08:00;;;;;;;;;;;;;;;12.12;81.30;97638.06;30001;983;1884;-59
2021/09/28 02:08:31;;;;;;;;;;;;;;;12.08;81.74;97638.63;30001;983;1880;-59
2021/09/28 02:09:03;;;;;;;;;;;;;;;12.07;81.95;97637.00;30001;982;1885;-58
2021/09/28 02:09:34;;;;;;;;;;;;;;;12.04;81.24;97636.75;30001;982;1858;-58
2021/09/28 02:10:06;;;;;;;;;;;;;;;12.02;81.10;97638.94;30001;982;1880;-58
2021/09/28 02:10:37;;;;;;;;;;;;;;;12.02;81.41;97637.03;30001;982;1880;-58
2021/09/28 02:11:09;;;;;;;;;;;;;;;12.03;81.48;97635.94;30001;982;1884;-57
2021/09/28 02:11:40;;;;;;;;;;;;;;;12.02;81.67;97634.31;30001;982;1880;-59
2021/09/28 02:12:11;;;;;;;;;;;;;;;12.01;81.52;97635.41;30001;982;1885;-58
2021/09/28 02:12:42;;;;;;;;;;;;;;;12.01;81.53;97643.59;30001;983;1879;-59
2021/09/28 02:13:14;;;;;;;;;;;;;;;12.01;81.78;97632.69;30001;983;1755;-59
2021/09/28 02:13:49;;;;;;;;;;;;;;;12.00;81.45;97639.25;30001;983;1875;-57
2021/09/28 02:14:21;;;;;;;;;;;;;;;12.00;81.67;97641.97;30001;983;1884;-59
2021/09/28 02:14:52;;;;;;;;;;;;;;;12.00;81.79;97636.53;30001;983;1880;-58
2021/09/28 02:15:25;;;;;;;;;;;;;;;12.00;81.67;97641.16;30001;983;1884;-59
2021/09/28 02:15:56;;;;;;;;;;;;;;;11.99;81.91;97634.91;30001;983;1880;-57
2021/09/28 02:16:27;;;;;;;;;;;;;;;11.99;81.82;97637.63;30001;983;1884;-59
2021/09/28 02:16:58;;;;;;;;;;;;;;;11.98;81.59;97633.25;30001;982;1880;-57
2021/09/28 02:17:30;;;;;;;;;;;;;;;11.99;81.55;97634.91;30001;982;1885;-59
2021/09/28 02:18:01;;;;;;;;;;;;;;;12.00;81.36;97631.06;30001;982;1880;-60
2021/09/28 02:18:32;;;;;;;;;;;;;;;12.00;81.32;97641.97;30001;982;1863;-59
2021/09/28 02:19:03;;;;;;;;;;;;;;;12.00;81.42;97636.53;30001;982;1876;-59
2021/09/28 02:19:35;;;;;;;;;;;;;;;12.01;81.25;97637.34;30001;983;1884;-57
2021/09/28 02:20:07;;;;;;;;;;;;;;;12.01;81.20;97632.69;30001;983;1879;-59
2021/09/28 02:20:38;;;;;;;;;;;;;;;12.02;81.45;97645.22;30001;983;1884;-57
2021/09/28 02:21:09;;;;;;;;;;;;;;;12.02;81.33;97639.78;30001;983;1879;-58
2021/09/28 02:21:39;;;;;;;;;;;;;;;12.02;81.01;97634.31;30001;983;1884;-58
2021/09/28 02:22:10;;;;;;;;;;;;;;;12.02;80.92;97639.78;30001;983;1752;-57
2021/09/28 02:22:42;;;;;;;;;;;;;;;12.02;81.02;97625.34;30001;983;1880;-57
2021/09/28 02:23:13;;;;;;;;;;;;;;;12.02;81.26;97634.31;30001;983;1880;-58
2021/09/28 02:23:44;;;;;;;;;;;;;;;12.02;81.12;97631.59;30001;983;1884;-59
2021/09/28 02:24:17;;;;;;;;;;;;;;;12.02;81.11;97622.63;30001;982;1880;-57
2021/09/28 02:24:49;;;;;;;;;;;;;;;12.02;81.36;97631.59;30001;982;1884;-58
2021/09/28 02:25:23;;;;;;;;;;;;;;;12.01;81.27;97627.25;30001;982;1880;-58
2021/09/28 02:25:54;;;;;;;;;;;;;;;12.02;81.08;97622.63;30001;982;1885;-57
2021/09/28 02:26:26;;;;;;;;;;;;;;;12.02;81.01;97618.00;30001;982;1880;-58
2021/09/28 02:26:57;;;;;;;;;;;;;;;12.03;81.21;97625.06;30001;983;1862;-57
2021/09/28 02:27:29;;;;;;;;;;;;;;;12.03;81.05;97625.06;30001;983;1875;-58
2021/09/28 02:27:59;;;;;;;;;;;;;;;12.02;80.99;97623.44;30001;983;1884;-58
2021/09/28 02:28:31;;;;;;;;;;;;;;;12.02;81.01;97625.34;30001;983;1857;-58
2021/09/28 02:29:03;;;;;;;;;;;;;;;12.01;80.84;97627.25;30001;983;1880;-58
2021/09/28 02:29:34;;;;;;;;;;;;;;;12.01;81.20;97624.53;30001;983;1880;-59
2021/09/28 02:30:06;;;;;;;;;;;;;;;12.02;81.07;97628.06;30001;983;1884;-57
2021/09/28 02:30:38;;;;;;;;;;;;;;;12.01;81.47;97618.28;30001;983;1880;-58
2021/09/28 02:31:10;;;;;;;;;;;;;;;12.00;81.44;97625.63;30001;983;1884;-58
2021/09/28 02:31:41;;;;;;;;;;;;;;;12.00;81.13;97620.19;30001;982;1880;-59
2021/09/28 02:32:13;;;;;;;;;;;;;;;12.01;81.39;97621.00;30001;982;1884;-59
2021/09/28 02:32:44;;;;;;;;;;;;;;;11.98;81.28;97611.50;30001;982;1880;-58
2021/09/28 02:33:15;;;;;;;;;;;;;;;11.99;81.27;97617.75;30001;982;1884;-59
2021/09/28 02:33:46;;;;;;;;;;;;;;;11.97;81.35;97620.75;30001;982;1859;-58
2021/09/28 02:34:18;;;;;;;;;;;;;;;11.94;81.65;97615.87;30001;983;1879;-58
2021/09/28 02:34:49;;;;;;;;;;;;;;;11.95;81.21;97617.50;30001;983;1880;-58
2021/09/28 02:35:20;;;;;;;;;;;;;;;11.94;81.22;97626.75;30001;983;1884;-59
2021/09/28 02:35:51;;;;;;;;;;;;;;;11.95;81.51;97617.50;30001;983;1880;-59
2021/09/28 02:36:21;;;;;;;;;;;;;;;11.95;81.50;97622.94;30001;983;1884;-58
2021/09/28 02:36:52;;;;;;;;;;;;;;;11.97;81.33;97619.94;30001;983;1880;-59
2021/09/28 02:37:23;;;;;;;;;;;;;;;11.98;81.65;97627.81;30001;983;1884;-59
2021/09/28 02:37:56;;;;;;;;;;;;;;;11.96;81.74;97621.84;30001;959;1904;-59
2021/09/28 02:38:27;;;;;;;;;;;;;;;11.94;81.87;97621.31;30001;983;1884;-59
2021/09/28 02:38:58;;;;;;;;;;;;;;;11.93;82.08;97619.69;30001;983;1746;-58
2021/09/28 02:39:31;;;;;;;;;;;;;;;11.93;82.36;97627.88;30001;982;1858;-60
2021/09/28 02:40:03;;;;;;;;;;;;;;;11.90;82.12;97624.91;30001;982;1880;-58
2021/09/28 02:40:34;;;;;;;;;;;;;;;11.89;82.08;97624.09;30001;982;1884;-59
2021/09/28 02:41:05;;;;;;;;;;;;;;;11.86;82.27;97623.84;30001;982;1880;-59
2021/09/28 02:41:37;;;;;;;;;;;;;;;11.86;82.21;97623.84;30001;982;1885;-58
2021/09/28 02:42:08;;;;;;;;;;;;;;;11.86;82.15;97630.09;30001;983;1879;-59
2021/09/28 02:42:40;;;;;;;;;;;;;;;11.88;82.01;97627.91;30001;983;1884;-58
2021/09/28 02:43:11;;;;;;;;;;;;;;;11.87;81.99;97622.75;30001;983;1879;-59
2021/09/28 02:43:42;;;;;;;;;;;;;;;11.84;81.94;97626.84;30001;983;1884;-58
2021/09/28 02:44:13;;;;;;;;;;;;;;;11.84;82.29;97631.47;30001;983;1880;-59
2021/09/28 02:44:44;;;;;;;;;;;;;;;11.84;82.31;97626.84;30001;983;1862;-58
2021/09/28 02:45:16;;;;;;;;;;;;;;;11.84;82.41;97626.03;30001;983;1876;-57
2021/09/28 02:45:50;;;;;;;;;;;;;;;11.83;82.39;97624.41;30001;983;1884;-58
2021/09/28 02:46:21;;;;;;;;;;;;;;;11.82;82.30;97629.03;30001;983;1880;-59
2021/09/28 02:46:52;;;;;;;;;;;;;;;11.83;82.48;97619.78;30001;982;1885;-58
2021/09/28 02:47:24;;;;;;;;;;;;;;;11.83;82.39;97624.41;30001;982;1880;-59
2021/09/28 02:47:55;;;;;;;;;;;;;;;11.83;82.51;97625.22;30001;982;1885;-58
2021/09/28 02:48:26;;;;;;;;;;;;;;;11.82;82.18;97620.88;30001;982;1880;-59
2021/09/28 02:48:57;;;;;;;;;;;;;;;11.83;82.18;97618.97;30001;982;1885;-59
2021/09/28 02:49:28;;;;;;;;;;;;;;;11.80;82.72;97620.34;30001;983;1880;-58